Time;durP1;ratioP1;P1;durP2;ratioP2;P2;SDS_P1;SDS_P2;PMS_P1;PMS_P2;Temp;Humidity;BMP_temperature;BMP_pressure;BME280_temperature;BME280_humidity;BME280_pressure;Samples;Min_cycle;Max_cycle;Signal;HPM_P1;HPM_P2
2022/10/29 00:02:18;;;;;;;21.33;17.90;;;15.90;1.00;;;;;;5086197;28;20201;-54
2022/10/29 00:04:44;;;;;;;21.67;17.37;;;15.90;1.00;;;;;;5084870;28;20227;-55
2022/10/29 00:07:09;;;;;;;19.70;16.57;;;15.80;1.00;;;;;;5085898;28;20272;-57
2022/10/29 00:09:35;;;;;;;23.10;16.40;;;15.90;1.00;;;;;;5088929;28;20231;-56
2022/10/29 00:12:00;;;;;;;22.03;17.10;;;15.90;1.00;;;;;;5090141;28;20182;-55
2022/10/29 00:14:26;;;;;;;24.73;16.70;;;15.90;1.00;;;;;;5087015;28;20701;-55
2022/10/29 00:16:52;;;;;;;20.30;17.47;;;15.90;1.00;;;;;;5089343;28;20199;-57
2022/10/29 00:19:17;;;;;;;19.40;16.57;;;15.90;1.00;;;;;;5088275;28;20192;-55
2022/10/29 00:21:43;;;;;;;21.23;16.90;;;15.90;1.00;;;;;;5089114;28;20189;-55
2022/10/29 00:24:09;;;;;;;22.67;16.93;;;15.80;1.00;;;;;;5089212;28;20202;-57
2022/10/29 00:26:35;;;;;;;19.43;16.23;;;15.80;1.00;;;;;;5088943;28;20181;-56
2022/10/29 00:29:00;;;;;;;22.90;17.73;;;15.80;1.00;;;;;;5087334;28;20446;-54
2022/10/29 00:31:26;;;;;;;22.87;16.93;;;;;;;;;;5085768;28;20192;-56
2022/10/29 00:33:53;;;;;;;20.40;16.17;;;15.80;1.00;;;;;;5079641;28;20285;-56
2022/10/29 00:36:25;;;;;;;20.70;15.97;;;15.80;1.00;;;;;;5081834;28;20768;-56
2022/10/29 00:38:51;;;;;;;20.60;15.50;;;15.80;1.00;;;;;;5082020;28;20816;-56
2022/10/29 00:41:30;;;;;;;20.73;16.03;;;15.80;1.00;;;;;;5090993;28;20543;-56
2022/10/29 00:44:13;;;;;;;18.37;16.30;;;15.70;1.00;;;;;;5080478;28;20543;-56
2022/10/29 00:46:42;;;;;;;23.93;17.73;;;15.70;1.00;;;;;;5087606;28;20413;-56
2022/10/29 00:49:09;;;;;;;21.63;17.40;;;15.70;1.00;;;;;;5084309;28;20525;-56
2022/10/29 00:51:35;;;;;;;19.13;16.33;;;15.70;1.00;;;;;;5085760;28;20462;-57
2022/10/29 00:54:05;;;;;;;23.30;18.40;;;15.70;1.00;;;;;;5088830;28;20927;-55
2022/10/29 00:56:35;;;;;;;24.07;16.83;;;15.70;1.00;;;;;;5086041;28;21690;-54
2022/10/29 00:59:01;;;;;;;22.60;17.00;;;15.70;1.00;;;;;;5088292;28;20541;-57
2022/10/29 01:01:27;;;;;;;22.57;17.10;;;15.70;1.00;;;;;;5076910;28;20514;-56
2022/10/29 01:03:54;;;;;;;20.70;18.50;;;15.70;1.00;;;;;;5084055;28;20855;-54
2022/10/29 01:06:21;;;;;;;20.17;16.77;;;15.60;1.00;;;;;;5088771;28;20275;-54
2022/10/29 01:08:46;;;;;;;18.40;16.50;;;15.60;1.00;;;;;;5082884;28;21550;-57
2022/10/29 01:11:34;;;;;;;21.13;17.77;;;15.60;1.00;;;;;;5085744;28;20460;-55
2022/10/29 01:14:17;;;;;;;25.50;18.43;;;15.60;1.00;;;;;;5083673;28;20182;-55
2022/10/29 01:17:17;;;;;;;19.37;17.27;;;15.50;1.00;;;;;;5087346;28;21294;-56
2022/10/29 01:20:07;;;;;;;22.87;18.17;;;15.80;1.00;;;;;;5082486;28;20451;-55
2022/10/29 01:23:05;;;;;;;25.40;19.07;;;15.50;1.00;;;;;;5087924;28;20439;-55
2022/10/29 01:26:01;;;;;;;20.00;17.90;;;15.50;1.00;;;;;;5066237;28;21055;-56
2022/10/29 01:28:41;;;;;;;20.93;17.10;;;15.50;1.00;;;;;;5082977;28;20842;-55
2022/10/29 01:31:41;;;;;;;25.50;17.03;;;15.50;1.00;;;;;;5087237;28;20450;-55
2022/10/29 01:34:06;;;;;;;23.37;18.00;;;15.60;1.00;;;;;;5085099;28;20459;-57
2022/10/29 01:36:45;;;;;;;22.90;17.40;;;15.50;1.00;;;;;;5087882;28;20836;-56
2022/10/29 01:39:25;;;;;;;24.73;17.40;;;15.60;1.00;;;;;;5081157;28;20190;-57
2022/10/29 01:41:59;;;;;;;21.93;18.57;;;15.60;1.00;;;;;;5080520;28;20435;-57
2022/10/29 01:44:40;;;;;;;23.33;17.47;;;15.70;1.00;;;;;;5085143;28;20816;-57
2022/10/29 01:47:30;;;;;;;23.07;17.07;;;15.70;1.00;;;;;;5087353;28;20488;-56
2022/10/29 01:50:02;;;;;;;25.20;17.53;;;15.70;1.00;;;;;;5087620;28;21010;-55
2022/10/29 01:52:32;;;;;;;22.23;17.57;;;15.70;1.00;;;;;;5086723;28;21357;-57
2022/10/29 01:54:58;;;;;;;21.50;16.47;;;;;;;;;;5088114;28;20458;-56
2022/10/29 01:57:24;;;;;;;23.43;17.50;;;15.70;1.00;;;;;;5084102;28;20608;-57
2022/10/29 01:59:50;;;;;;;24.60;17.23;;;15.80;1.00;;;;;;5087316;28;20535;-54
2022/10/29 02:02:35;;;;;;;22.20;18.60;;;15.80;1.00;;;;;;5087047;28;20329;-54
2022/10/29 02:05:26;;;;;;;22.40;16.97;;;15.80;1.00;;;;;;5085250;28;20449;-56
2022/10/29 02:07:58;;;;;;;22.00;16.67;;;15.80;1.00;;;;;;5084998;28;20472;-57
2022/10/29 02:10:32;;;;;;;23.03;18.47;;;16.00;1.00;;;;;;5086916;28;20457;-56
2022/10/29 02:12:58;;;;;;;22.60;18.53;;;15.80;1.00;;;;;;5086234;28;20442;-56
2022/10/29 02:15:31;;;;;;;25.13;19.50;;;15.80;1.00;;;;;;5079420;28;20485;-54
2022/10/29 02:18:01;;;;;;;23.77;17.47;;;15.80;1.00;;;;;;5087498;28;20418;-55
2022/10/29 02:20:27;;;;;;;24.10;17.00;;;15.80;1.00;;;;;;5084974;28;20473;-55
2022/10/29 02:22:52;;;;;;;23.17;16.80;;;15.80;1.00;;;;;;5086847;28;20416;-56
2022/10/29 02:25:18;;;;;;;22.17;17.17;;;15.80;1.00;;;;;;5083958;28;20223;-56
2022/10/29 02:27:43;;;;;;;23.27;18.93;;;15.80;1.00;;;;;;5086494;28;20185;-56
2022/10/29 02:30:09;;;;;;;27.73;18.23;;;15.70;1.00;;;;;;5086035;28;20182;-55
2022/10/29 02:32:35;;;;;;;23.37;18.40;;;15.70;1.00;;;;;;5081105;28;20184;-55
2022/10/29 02:35:01;;;;;;;19.00;16.77;;;15.70;1.00;;;;;;5088502;28;20515;-55
2022/10/29 02:37:27;;;;;;;21.33;16.90;;;;;;;;;;5079259;28;20199;-56
2022/10/29 02:39:52;;;;;;;23.20;17.50;;;15.70;1.00;;;;;;5082606;28;20465;-55
2022/10/29 02:42:18;;;;;;;26.97;17.40;;;15.70;1.00;;;;;;5088942;28;20412;-57
2022/10/29 02:44:44;;;;;;;21.93;17.47;;;;;;;;;;5083798;28;20529;-55
2022/10/29 02:47:10;;;;;;;24.33;18.47;;;15.80;1.00;;;;;;5083959;28;20192;-56
2022/10/29 02:49:35;;;;;;;26.03;18.43;;;15.70;1.00;;;;;;5085628;28;20417;-55
2022/10/29 02:52:01;;;;;;;26.07;17.73;;;15.70;1.00;;;;;;5088751;28;20221;-56
2022/10/29 02:54:26;;;;;;;21.93;18.33;;;15.70;1.00;;;;;;5085331;28;20192;-57
2022/10/29 02:56:52;;;;;;;20.73;17.63;;;15.70;1.00;;;;;;5085812;28;20656;-55
2022/10/29 02:59:17;;;;;;;19.30;16.73;;;15.70;1.00;;;;;;5085759;28;20246;-55
2022/10/29 03:01:43;;;;;;;22.77;18.13;;;15.70;1.00;;;;;;5084750;28;20665;-56
2022/10/29 03:04:10;;;;;;;20.43;17.43;;;15.80;1.00;;;;;;5086679;28;20555;-56
2022/10/29 03:06:36;;;;;;;22.20;18.87;;;15.70;1.00;;;;;;5083956;28;20245;-56
2022/10/29 03:09:03;;;;;;;22.67;19.10;;;15.70;1.00;;;;;;5082403;28;20422;-55
2022/10/29 03:11:29;;;;;;;19.53;17.27;;;15.70;1.00;;;;;;5088031;28;20443;-56
2022/10/29 03:13:54;;;;;;;20.60;17.80;;;15.70;1.00;;;;;;5083199;28;20416;-56
2022/10/29 03:16:20;;;;;;;22.50;17.87;;;15.70;1.00;;;;;;5084075;28;20465;-55
2022/10/29 03:18:45;;;;;;;23.27;18.93;;;15.70;1.00;;;;;;5083103;28;20500;-56
2022/10/29 03:21:11;;;;;;;23.00;19.50;;;15.60;1.00;;;;;;5089883;28;20217;-55
2022/10/29 03:23:37;;;;;;;24.07;19.27;;;15.50;1.00;;;;;;5087935;28;20182;-56
2022/10/29 03:26:02;;;;;;;24.07;18.80;;;15.50;1.00;;;;;;5092036;28;20206;-55
2022/10/29 03:28:29;;;;;;;22.77;18.50;;;15.50;1.00;;;;;;5086872;28;20193;-56
2022/10/29 03:30:55;;;;;;;20.77;18.53;;;15.40;1.00;;;;;;5086259;28;20656;-56
2022/10/29 03:33:22;;;;;;;23.43;19.40;;;15.40;1.00;;;;;;5088360;28;20490;-55
2022/10/29 03:35:47;;;;;;;26.40;18.83;;;15.40;1.00;;;;;;5087261;28;20749;-57
2022/10/29 03:38:13;;;;;;;23.57;18.90;;;15.40;1.00;;;;;;5086908;28;20530;-55
2022/10/29 03:40:38;;;;;;;24.07;19.07;;;15.30;1.00;;;;;;5089133;28;20287;-56
2022/10/29 03:43:04;;;;;;;26.30;19.43;;;15.20;1.00;;;;;;5087619;28;20182;-55
2022/10/29 03:45:29;;;;;;;30.10;20.33;;;15.20;1.00;;;;;;5089364;28;20212;-55
2022/10/29 03:47:56;;;;;;;26.57;20.80;;;15.20;1.00;;;;;;5085466;28;20632;-57
2022/10/29 03:50:21;;;;;;;24.10;18.13;;;15.20;1.00;;;;;;5090728;28;20185;-56
2022/10/29 03:52:47;;;;;;;29.00;20.57;;;15.10;1.00;;;;;;5088813;28;20809;-54
2022/10/29 03:55:12;;;;;;;24.97;21.73;;;15.10;1.00;;;;;;5086863;28;20213;-55
2022/10/29 03:57:38;;;;;;;28.10;19.30;;;18.60;1.00;;;;;;5085222;28;20201;-55
2022/10/29 04:00:04;;;;;;;27.67;20.17;;;15.00;1.00;;;;;;5089319;28;20198;-55
2022/10/29 04:02:30;;;;;;;23.93;19.73;;;15.00;1.00;;;;;;5089421;28;20189;-55
2022/10/29 04:04:55;;;;;;;24.37;20.13;;;15.00;1.00;;;;;;5088606;28;20465;-56
2022/10/29 04:07:21;;;;;;;24.73;19.47;;;14.90;1.00;;;;;;5090127;28;20180;-56
2022/10/29 04:09:46;;;;;;;24.87;20.03;;;14.90;1.00;;;;;;5088069;28;20184;-55
2022/10/29 04:12:12;;;;;;;24.80;19.20;;;14.80;1.00;;;;;;5088800;28;20190;-57
2022/10/29 04:14:37;;;;;;;26.03;20.07;;;14.90;1.00;;;;;;5088535;28;20549;-57
2022/10/29 04:17:03;;;;;;;25.27;20.47;;;14.80;1.00;;;;;;5087213;28;20195;-57
2022/10/29 04:19:29;;;;;;;23.47;18.50;;;14.80;1.00;;;;;;5082799;28;20192;-55
2022/10/29 04:21:54;;;;;;;26.40;20.73;;;14.80;1.00;;;;;;5087522;28;20239;-54
2022/10/29 04:24:20;;;;;;;24.83;18.80;;;16.80;1.00;;;;;;5091151;28;20573;-56
2022/10/29 04:26:45;;;;;;;23.73;19.33;;;14.80;1.00;;;;;;5088204;28;20667;-55
2022/10/29 04:29:11;;;;;;;26.57;21.30;;;14.70;1.00;;;;;;5087971;28;20190;-57
2022/10/29 04:31:37;;;;;;;24.13;19.37;;;14.70;1.00;;;;;;5086119;28;20224;-56
2022/10/29 04:34:03;;;;;;;22.33;18.73;;;14.70;1.00;;;;;;5089604;28;20212;-55
2022/10/29 04:36:29;;;;;;;26.30;20.07;;;14.70;1.00;;;;;;5088669;28;20779;-56
2022/10/29 04:38:54;;;;;;;26.63;19.40;;;14.70;1.00;;;;;;5087720;28;20642;-55
2022/10/29 04:41:20;;;;;;;25.33;21.17;;;14.70;1.00;;;;;;5088121;28;20188;-56
2022/10/29 04:43:45;;;;;;;26.10;20.50;;;14.80;1.00;;;;;;5086854;28;20260;-55
2022/10/29 04:46:11;;;;;;;25.60;20.03;;;14.60;1.00;;;;;;5088662;28;20654;-55
2022/10/29 04:48:37;;;;;;;27.80;20.47;;;;;;;;;;5090036;28;20183;-54
2022/10/29 04:51:03;;;;;;;25.80;20.50;;;;;;;;;;5084958;28;20755;-55
2022/10/29 04:53:28;;;;;;;25.27;19.50;;;14.60;1.00;;;;;;5086755;28;20523;-55
2022/10/29 04:56:00;;;;;;;25.80;19.33;;;14.70;1.00;;;;;;5085469;28;20430;-53
2022/10/29 04:58:27;;;;;;;24.53;19.53;;;14.60;1.00;;;;;;5087938;28;20224;-54
2022/10/29 05:00:52;;;;;;;22.47;18.60;;;14.50;1.00;;;;;;5085778;28;20438;-53
2022/10/29 05:03:18;;;;;;;28.53;20.50;;;14.50;1.00;;;;;;5087420;28;20787;-56
2022/10/29 05:05:44;;;;;;;27.53;19.80;;;14.50;1.00;;;;;;5087134;28;20212;-54
2022/10/29 05:08:10;;;;;;;25.83;19.03;;;14.60;1.00;;;;;;5087466;28;20228;-53
2022/10/29 05:10:38;;;;;;;25.67;20.30;;;14.60;1.00;;;;;;5086420;28;20479;-53
2022/10/29 05:13:06;;;;;;;22.43;18.10;;;14.60;1.00;;;;;;5090243;28;20442;-55
2022/10/29 05:15:32;;;;;;;23.40;19.63;;;14.60;1.00;;;;;;5083974;28;20487;-53
2022/10/29 05:17:58;;;;;;;25.03;20.00;;;11.60;1.00;;;;;;5088970;28;20940;-54
2022/10/29 05:20:24;;;;;;;25.57;19.20;;;14.50;1.00;;;;;;5085591;28;20455;-54
2022/10/29 05:22:57;;;;;;;25.93;17.70;;;14.50;1.00;;;;;;5089469;28;20194;-53
2022/10/29 05:25:23;;;;;;;29.23;21.10;;;14.50;1.00;;;;;;5089287;28;20448;-52
2022/10/29 05:27:48;;;;;;;24.73;19.77;;;14.50;1.00;;;;;;5086314;28;20456;-56
2022/10/29 05:30:14;;;;;;;26.80;20.30;;;14.60;1.00;;;;;;5086408;28;20275;-55
2022/10/29 05:32:39;;;;;;;24.33;18.90;;;14.60;1.00;;;;;;5087359;28;20213;-57
2022/10/29 05:35:05;;;;;;;24.67;18.50;;;14.70;1.00;;;;;;5087001;28;20197;-56
2022/10/29 05:37:31;;;;;;;21.77;18.70;;;14.70;1.00;;;;;;5086915;28;20200;-54
2022/10/29 05:39:56;;;;;;;27.13;19.30;;;14.70;1.00;;;;;;5085696;28;20651;-57
2022/10/29 05:42:22;;;;;;;38.07;20.70;;;14.60;1.00;;;;;;5084553;28;20680;-56
2022/10/29 05:44:47;;;;;;;27.10;19.83;;;14.70;1.00;;;;;;5085721;28;20279;-55
2022/10/29 05:47:13;;;;;;;23.73;19.20;;;14.70;1.00;;;;;;5087228;28;20186;-56
2022/10/29 05:49:38;;;;;;;25.57;20.27;;;14.80;1.00;;;;;;5089461;28;20187;-55
2022/10/29 05:52:04;;;;;;;26.27;19.73;;;14.80;1.00;;;;;;5085404;28;20230;-56
2022/10/29 05:54:29;;;;;;;26.47;19.33;;;14.80;1.00;;;;;;5084089;28;20259;-56
2022/10/29 05:56:57;;;;;;;25.40;19.33;;;14.80;1.00;;;;;;5087298;28;20266;-56
2022/10/29 05:59:23;;;;;;;25.53;20.07;;;14.70;1.00;;;;;;5087259;28;20589;-54
2022/10/29 06:01:48;;;;;;;24.70;20.13;;;14.70;1.00;;;;;;5083309;28;20529;-56
2022/10/29 06:04:14;;;;;;;27.20;21.30;;;14.50;1.00;;;;;;5087540;28;20194;-56
2022/10/29 06:06:39;;;;;;;26.97;18.50;;;14.50;1.00;;;;;;5086062;28;20194;-56
2022/10/29 06:09:05;;;;;;;28.13;20.03;;;14.60;1.00;;;;;;5089317;28;20178;-57
2022/10/29 06:11:31;;;;;;;25.20;20.10;;;14.50;1.00;;;;;;5086870;28;20190;-56
2022/10/29 06:13:56;;;;;;;25.63;19.37;;;14.50;1.00;;;;;;5089153;28;20247;-57
2022/10/29 06:16:22;;;;;;;29.67;21.63;;;14.50;1.00;;;;;;5084227;28;20186;-56
2022/10/29 06:18:48;;;;;;;26.77;21.00;;;14.50;1.00;;;;;;5087388;28;20665;-57
2022/10/29 06:21:13;;;;;;;27.27;20.00;;;14.50;1.00;;;;;;5081979;28;20336;-57
2022/10/29 06:23:39;;;;;;;22.60;18.90;;;14.50;1.00;;;;;;5087896;28;20199;-56
2022/10/29 06:26:04;;;;;;;25.97;19.60;;;14.60;1.00;;;;;;5085660;28;20297;-55
2022/10/29 06:28:30;;;;;;;20.80;18.20;;;14.50;1.00;;;;;;5084125;28;20195;-55
2022/10/29 06:30:56;;;;;;;25.27;19.73;;;14.50;1.00;;;;;;5084948;28;20275;-56
2022/10/29 06:33:22;;;;;;;26.50;19.57;;;14.50;1.00;;;;;;5089229;28;20969;-56
2022/10/29 06:35:47;;;;;;;27.03;20.13;;;14.60;1.00;;;;;;5085906;28;20621;-56
2022/10/29 06:38:13;;;;;;;27.07;19.53;;;14.60;1.00;;;;;;5086630;28;20672;-57
2022/10/29 06:40:40;;;;;;;28.70;21.00;;;14.70;1.00;;;;;;5085277;28;20324;-56
2022/10/29 06:43:09;;;;;;;28.20;20.70;;;14.70;1.00;;;;;;5088787;28;20182;-56
2022/10/29 06:45:35;;;;;;;22.80;18.40;;;14.80;1.00;;;;;;5083578;28;20449;-56
2022/10/29 06:48:01;;;;;;;24.50;18.60;;;14.80;1.00;;;;;;5087744;28;20421;-56
2022/10/29 06:50:27;;;;;;;26.40;19.43;;;;;;;;;;5088661;28;20529;-57
2022/10/29 06:53:04;;;;;;;24.47;20.07;;;14.70;1.00;;;;;;5086405;28;20487;-57
2022/10/29 06:55:30;;;;;;;23.70;19.20;;;;;;;;;;5087665;28;20451;-55
2022/10/29 06:58:00;;;;;;;23.70;18.70;;;14.90;1.00;;;;;;5092021;28;20507;-55
2022/10/29 07:00:27;;;;;;;28.03;21.07;;;14.80;1.00;;;;;;5088032;28;20473;-58
2022/10/29 07:02:53;;;;;;;26.93;20.90;;;14.90;1.00;;;;;;5092630;28;20441;-57
2022/10/29 07:05:19;;;;;;;25.03;19.70;;;14.90;1.00;;;;;;5090482;28;20479;-55
2022/10/29 07:07:46;;;;;;;22.87;19.03;;;14.90;1.00;;;;;;5088327;28;20193;-57
2022/10/29 07:10:12;;;;;;;23.33;19.40;;;15.00;1.00;;;;;;5090105;28;20526;-54
2022/10/29 07:12:41;;;;;;;24.03;18.07;;;15.00;1.00;;;;;;5087797;28;21081;-57
2022/10/29 07:15:07;;;;;;;26.97;19.13;;;15.00;1.00;;;;;;5087293;28;20792;-55
2022/10/29 07:17:33;;;;;;;26.53;19.80;;;15.00;1.00;;;;;;5087881;28;21012;-55
2022/10/29 07:19:59;;;;;;;24.77;19.57;;;15.00;1.00;;;;;;5090402;28;20422;-56
2022/10/29 07:22:24;;;;;;;27.13;19.60;;;15.10;1.00;;;;;;5088036;28;20744;-57
2022/10/29 07:24:50;;;;;;;26.10;20.40;;;15.10;1.00;;;;;;5090948;28;20198;-57
2022/10/29 07:27:15;;;;;;;30.57;19.87;;;15.20;1.00;;;;;;5088224;28;20275;-56
2022/10/29 07:29:41;;;;;;;25.43;19.40;;;15.30;1.00;;;;;;5087588;28;20179;-55
2022/10/29 07:32:06;;;;;;;26.00;19.80;;;15.30;1.00;;;;;;5088649;28;20253;-57
2022/10/29 07:34:32;;;;;;;27.47;19.00;;;15.30;1.00;;;;;;5090535;28;20481;-57
2022/10/29 07:37:00;;;;;;;21.93;18.87;;;17.80;1.00;;;;;;5088902;28;20194;-55
2022/10/29 07:39:26;;;;;;;22.93;18.43;;;15.40;1.00;;;;;;5087719;28;20664;-55
2022/10/29 07:41:51;;;;;;;24.87;18.73;;;15.60;1.00;;;;;;5089212;28;20450;-57
2022/10/29 07:44:17;;;;;;;27.90;20.50;;;15.60;1.00;;;;;;5089204;28;20221;-56
2022/10/29 07:46:42;;;;;;;24.63;19.70;;;15.70;1.00;;;;;;5090094;28;20252;-55
2022/10/29 07:49:08;;;;;;;30.00;19.60;;;15.70;1.00;;;;;;5088010;28;20312;-55
2022/10/29 07:51:34;;;;;;;24.17;19.93;;;15.80;1.00;;;;;;5090106;28;20231;-55
2022/10/29 07:53:59;;;;;;;27.00;19.30;;;15.90;1.00;;;;;;5087812;28;20221;-55
2022/10/29 07:56:25;;;;;;;24.43;17.33;;;16.00;1.00;;;;;;5089256;28;20553;-56
2022/10/29 07:58:50;;;;;;;25.73;19.07;;;16.00;1.00;;;;;;5086796;28;20766;-57
2022/10/29 08:01:16;;;;;;;24.63;18.73;;;16.10;1.00;;;;;;5088242;28;20645;-56
2022/10/29 08:03:41;;;;;;;24.17;16.47;;;16.20;1.00;;;;;;5090912;28;20311;-57
2022/10/29 08:06:07;;;;;;;25.63;18.23;;;16.30;1.00;;;;;;5089756;28;20219;-57
2022/10/29 08:08:33;;;;;;;24.77;19.10;;;16.30;1.00;;;;;;5090708;28;20285;-54
2022/10/29 08:11:03;;;;;;;21.50;17.60;;;16.30;1.00;;;;;;5091629;28;20256;-57
2022/10/29 08:13:29;;;;;;;26.40;20.43;;;16.40;1.00;;;;;;5089338;28;20584;-56
2022/10/29 08:15:55;;;;;;;23.87;18.20;;;16.40;1.00;;;;;;5087932;28;20504;-56
2022/10/29 08:18:21;;;;;;;23.40;17.33;;;16.60;1.00;;;;;;5087649;28;20428;-55
2022/10/29 08:20:47;;;;;;;23.40;19.07;;;16.70;1.00;;;;;;5089956;28;20636;-55
2022/10/29 08:23:13;;;;;;;19.63;17.33;;;16.80;1.00;;;;;;5091238;28;20272;-57
2022/10/29 08:25:42;;;;;;;24.27;17.20;;;;;;;;;;5090985;28;20209;-56
2022/10/29 08:28:10;;;;;;;24.33;18.90;;;17.30;1.00;;;;;;5086735;28;20455;-58
2022/10/29 08:30:36;;;;;;;23.33;18.57;;;17.40;1.00;;;;;;5089243;28;20437;-57
2022/10/29 08:33:03;;;;;;;25.70;17.83;;;17.60;1.00;;;;;;5087809;28;20417;-54
2022/10/29 08:35:29;;;;;;;20.07;17.20;;;17.60;1.00;;;;;;5090176;28;20940;-55
2022/10/29 08:37:55;;;;;;;20.87;16.77;;;17.50;1.00;;;;;;5087882;28;20454;-55
2022/10/29 08:40:48;;;;;;;20.20;15.70;;;17.50;1.00;;;;;;5087277;28;20429;-57
2022/10/29 08:43:31;;;;;;;21.93;15.20;;;17.50;1.00;;;;;;5091118;28;20641;-54
2022/10/29 08:45:57;;;;;;;28.57;16.43;;;17.40;1.00;;;;;;5087096;28;20460;-55
2022/10/29 08:48:45;;;;;;;18.27;15.33;;;17.60;1.00;;;;;;5088549;28;20452;-55
2022/10/29 08:51:24;;;;;;;20.60;15.97;;;17.90;1.00;;;;;;5089893;28;20430;-56
2022/10/29 08:53:52;;;;;;;19.40;15.33;;;18.10;1.00;;;;;;5090252;28;20467;-57
2022/10/29 08:56:21;;;;;;;21.80;15.13;;;18.30;1.00;;;;;;5089908;28;20521;-58
2022/10/29 08:59:12;;;;;;;22.53;14.70;;;18.30;1.00;;;;;;5090541;28;20488;-57
2022/10/29 09:01:38;;;;;;;18.23;14.90;;;18.30;1.00;;;;;;5088523;28;20452;-56
2022/10/29 09:04:11;;;;;;;23.53;16.07;;;18.40;1.00;;;;;;5089291;28;20430;-56
2022/10/29 09:06:47;;;;;;;18.20;14.90;;;18.40;1.00;;;;;;5085028;28;20518;-57
2022/10/29 09:09:36;;;;;;;17.83;14.60;;;18.30;1.00;;;;;;5090187;28;20989;-55
2022/10/29 09:12:39;;;;;;;17.87;14.17;;;18.40;1.00;;;;;;5087041;28;20439;-56
2022/10/29 09:15:12;;;;;;;16.17;13.80;;;18.50;1.00;;;;;;5084424;28;20423;-56
2022/10/29 09:18:01;;;;;;;15.57;13.80;;;18.70;1.00;;;;;;5076929;28;20960;-57
2022/10/29 09:20:45;;;;;;;16.80;14.80;;;18.90;1.00;;;;;;5087222;28;20452;-57
2022/10/29 09:23:20;;;;;;;18.83;14.80;;;18.80;1.00;;;;;;5087435;28;20530;-55
2022/10/29 09:25:58;;;;;;;22.07;14.33;;;18.90;1.00;;;;;;5084100;28;20437;-57
2022/10/29 09:28:39;;;;;;;13.90;12.40;;;18.90;1.00;;;;;;5086441;28;20474;-57
2022/10/29 09:31:16;;;;;;;16.60;13.87;;;19.10;1.00;;;;;;5089683;28;20418;-57
2022/10/29 09:33:48;;;;;;;19.77;13.20;;;19.10;1.00;;;;;;5087440;28;20526;-56
2022/10/29 09:36:17;;;;;;;15.97;13.23;;;19.10;1.00;;;;;;5088687;28;20454;-56
2022/10/29 09:38:55;;;;;;;18.50;12.50;;;19.10;1.00;;;;;;5087324;28;20504;-55
2022/10/29 09:41:25;;;;;;;15.37;13.30;;;19.20;1.00;;;;;;5087918;28;20592;-57
2022/10/29 09:44:20;;;;;;;16.93;14.70;;;19.40;1.00;;;;;;5089191;28;20408;-57
2022/10/29 09:47:10;;;;;;;18.10;15.00;;;19.30;1.00;;;;;;5085488;28;20459;-56
2022/10/29 09:49:58;;;;;;;20.53;14.03;;;19.40;1.00;;;;;;5085776;28;20429;-55
2022/10/29 09:52:39;;;;;;;15.73;13.97;;;19.40;1.00;;;;;;5088421;28;20487;-56
2022/10/29 09:55:10;;;;;;;16.13;13.70;;;19.50;1.00;;;;;;5089170;28;20435;-56
2022/10/29 09:57:38;;;;;;;17.50;13.67;;;19.80;1.00;;;;;;5087836;28;20441;-56
2022/10/29 10:00:13;;;;;;;18.93;13.40;;;19.90;1.00;;;;;;5088878;28;20519;-58
2022/10/29 10:03:09;;;;;;;17.47;13.13;;;20.10;1.00;;;;;;5086408;28;20441;-55
2022/10/29 10:05:54;;;;;;;15.20;13.60;;;20.30;1.00;;;;;;5087060;28;20450;-57
2022/10/29 10:08:20;;;;;;;17.30;14.70;;;20.40;1.00;;;;;;5089345;28;20925;-56
2022/10/29 10:10:50;;;;;;;18.77;14.67;;;20.70;1.00;;;;;;5088033;28;20436;-56
2022/10/29 10:13:17;;;;;;;15.43;13.87;;;20.70;1.00;;;;;;5085764;28;20193;-57
2022/10/29 10:15:52;;;;;;;16.80;13.30;;;20.90;1.00;;;;;;5084621;28;20454;-55
2022/10/29 10:18:23;;;;;;;16.03;13.17;;;20.80;1.00;;;;;;5088539;28;20502;-56
2022/10/29 10:21:13;;;;;;;20.30;13.13;;;20.80;1.00;;;;;;5084904;28;20427;-56
2022/10/29 10:23:47;;;;;;;16.13;13.40;;;20.90;1.00;;;;;;5087923;28;20889;-56
2022/10/29 10:26:38;;;;;;;16.33;13.50;;;21.00;1.00;;;;;;5086108;28;20475;-56
2022/10/29 10:29:20;;;;;;;15.30;12.57;;;21.10;1.00;;;;;;5089933;28;20759;-54
2022/10/29 10:32:07;;;;;;;17.63;14.43;;;21.10;1.00;;;;;;5090270;28;20478;-55
2022/10/29 10:34:33;;;;;;;20.13;14.60;;;21.00;1.00;;;;;;5080418;28;20427;-56
2022/10/29 10:37:17;;;;;;;17.83;14.77;;;21.00;1.00;;;;;;5093185;28;20414;-55
2022/10/29 10:39:46;;;;;;;16.20;13.63;;;21.10;1.00;;;;;;5092734;28;20704;-57
2022/10/29 10:42:22;;;;;;;16.33;13.30;;;21.00;1.00;;;;;;5092962;28;20432;-55
2022/10/29 10:44:51;;;;;;;16.07;14.37;;;21.30;1.00;;;;;;5092696;28;20550;-56
2022/10/29 10:47:25;;;;;;;16.93;13.57;;;21.20;1.00;;;;;;5091963;28;20490;-56
2022/10/29 10:49:51;;;;;;;18.23;14.27;;;21.10;1.00;;;;;;5092925;28;20458;-57
2022/10/29 10:52:29;;;;;;;15.90;13.80;;;21.20;1.00;;;;;;5093386;28;20963;-55
2022/10/29 10:55:07;;;;;;;15.10;13.23;;;21.60;1.00;;;;;;5091892;28;20425;-55
2022/10/29 10:57:41;;;;;;;18.17;13.57;;;22.10;1.00;;;;;;5092464;28;20798;-56
2022/10/29 11:00:17;;;;;;;16.30;14.50;;;22.10;1.00;;;;;;5092175;28;20463;-56
2022/10/29 11:02:46;;;;;;;13.30;11.70;;;22.10;1.00;;;;;;5091479;28;20452;-56
2022/10/29 11:05:27;;;;;;;16.20;12.93;;;22.10;1.00;;;;;;5088632;28;20463;-56
2022/10/29 11:08:11;;;;;;;18.27;13.30;;;21.90;1.00;;;;;;5086170;28;20493;-56
2022/10/29 11:10:42;;;;;;;15.00;12.13;;;21.90;1.00;;;;;;5088883;28;20429;-54
2022/10/29 11:13:23;;;;;;;18.50;12.50;;;21.80;1.00;;;;;;5090856;28;20419;-55
2022/10/29 11:16:30;;;;;;;13.87;11.93;;;21.80;1.00;;;;;;5084352;28;20440;-57
2022/10/29 11:19:06;;;;;;;15.60;13.43;;;22.00;1.00;;;;;;5080911;28;20566;-55
2022/10/29 11:21:39;;;;;;;16.73;13.07;;;22.10;1.00;;;;;;5087856;28;20447;-57
2022/10/29 11:24:16;;;;;;;17.50;13.03;;;22.10;1.00;;;;;;5091582;28;20429;-57
2022/10/29 11:27:05;;;;;;;15.37;12.00;;;22.20;1.00;;;;;;5087972;28;21013;-57
2022/10/29 11:29:30;;;;;;;17.70;13.10;;;22.20;1.00;;;;;;5091865;28;20439;-55
2022/10/29 11:32:03;;;;;;;19.93;12.43;;;22.10;1.00;;;;;;5086483;28;20420;-55
2022/10/29 11:34:52;;;;;;;15.53;13.30;;;22.10;1.00;;;;;;5092203;28;20292;-56
2022/10/29 11:37:48;;;;;;;25.13;14.17;;;22.00;1.00;;;;;;5089087;28;20533;-55
2022/10/29 11:40:17;;;;;;;12.60;11.40;;;22.10;1.00;;;;;;5090721;28;20455;-56
2022/10/29 11:42:43;;;;;;;15.60;13.23;;;21.90;1.00;;;;;;5088558;28;20430;-55
2022/10/29 11:45:16;;;;;;;15.27;13.50;;;22.00;1.00;;;;;;5091451;28;20463;-55
2022/10/29 11:47:48;;;;;;;14.97;12.53;;;22.20;1.00;;;;;;5088503;28;20452;-57
2022/10/29 11:50:21;;;;;;;13.53;12.07;;;22.40;1.00;;;;;;5086898;28;20823;-57
2022/10/29 11:53:13;;;;;;;15.67;13.60;;;22.50;1.00;;;;;;5091552;28;20468;-56
2022/10/29 11:56:28;;;;;;;16.73;13.07;;;22.40;1.00;;;;;;5086613;28;20448;-55
2022/10/29 11:59:03;;;;;;;17.27;14.23;;;22.40;1.00;;;;;;5085318;28;20411;-57
2022/10/29 12:01:55;;;;;;;15.33;13.53;;;22.50;1.00;;;;;;5089322;28;20451;-57
2022/10/29 12:04:33;;;;;;;15.10;13.50;;;22.50;1.00;;;;;;5090348;28;20439;-56
2022/10/29 12:07:18;;;;;;;16.60;13.33;;;22.50;1.00;;;;;;5086549;28;20498;-56
2022/10/29 12:09:49;;;;;;;18.80;14.07;;;22.80;1.00;;;;;;5087363;28;20971;-56
2022/10/29 12:12:35;;;;;;;18.97;13.90;;;22.90;1.00;;;;;;5088845;28;20960;-56
2022/10/29 12:15:19;;;;;;;15.77;13.07;;;19.50;1.00;;;;;;5085276;28;20489;-55
2022/10/29 12:18:11;;;;;;;18.87;14.27;;;23.10;1.00;;;;;;5090186;28;20443;-57
2022/10/29 12:20:51;;;;;;;16.30;14.23;;;22.90;1.00;;;;;;5085404;28;20419;-56
2022/10/29 12:23:52;;;;;;;21.10;15.03;;;22.60;1.00;;;;;;5090242;28;20974;-56
2022/10/29 12:26:30;;;;;;;18.53;15.50;;;22.50;1.00;;;;;;5085020;28;20979;-55
2022/10/29 12:29:02;;;;;;;23.33;15.53;;;22.10;1.00;;;;;;5089058;28;20444;-56
2022/10/29 12:32:00;;;;;;;19.90;16.53;;;22.20;1.00;;;;;;5089877;28;20481;-56
2022/10/29 12:34:48;;;;;;;17.43;14.97;;;22.40;1.00;;;;;;5084456;28;20536;-54
2022/10/29 12:37:26;;;;;;;19.50;14.83;;;22.40;1.00;;;;;;5082888;28;20419;-55
2022/10/29 12:40:15;;;;;;;19.83;15.23;;;22.10;1.00;;;;;;5084169;28;20475;-57
2022/10/29 12:42:42;;;;;;;21.53;15.77;;;22.10;1.00;;;;;;5089734;28;20456;-56
2022/10/29 12:45:22;;;;;;;19.33;14.60;;;22.10;1.00;;;;;;5088164;28;20449;-58
2022/10/29 12:48:11;;;;;;;16.50;14.30;;;22.10;1.00;;;;;;5089333;28;20817;-57
2022/10/29 12:51:18;;;;;;;16.50;14.03;;;21.90;1.00;;;;;;5070272;28;20445;-56
2022/10/29 12:54:22;;;;;;;17.67;15.70;;;21.80;1.00;;;;;;5085410;28;20477;-57
2022/10/29 12:56:47;;;;;;;18.37;13.90;;;21.80;1.00;;;;;;5088965;28;20416;-56
2022/10/29 12:59:33;;;;;;;15.50;13.90;;;21.70;1.00;;;;;;5086364;28;20548;-57
2022/10/29 13:02:20;;;;;;;19.67;14.27;;;21.60;1.00;;;;;;5088396;28;20190;-56
2022/10/29 13:05:04;;;;;;;18.77;15.10;;;21.70;1.00;;;;;;5088022;28;20469;-56